Time,TemperatureF,DewpointF,PressureIn,WindDirection,WindDirectionDegrees,WindSpeedMPH,WindSpeedGustMPH,Humidity,HourlyPrecipIn,Conditions,Clouds,dailyrainin,SoftwareType,DateUTC
2013-12-21 00:01:00,31.0,29.0,29.67,North,0,1.8,3.1,92,0.00,,,0.00,WUHU216HW,2013-12-21 06:01:00,
2013-12-21 00:06:00,31.1,29.2,29.67,North,0,2.7,2.7,92,0.00,,,0.00,WUHU216HW,2013-12-21 06:06:00,
2013-12-21 00:11:00,31.0,29.0,29.67,North,0,3.6,4.5,92,0.00,,,0.00,WUHU216HW,2013-12-21 06:11:00,
2013-12-21 00:16:00,31.0,29.0,29.67,North,0,0.7,4.5,92,0.00,,,0.00,WUHU216HW,2013-12-21 06:16:00,
2013-12-21 00:21:00,31.0,29.0,29.67,NW,315,4.0,4.0,92,0.00,,,0.00,WUHU216HW,2013-12-21 06:21:00,
2013-12-21 00:26:00,31.0,29.0,29.65,North,0,4.0,5.8,92,0.00,,,0.00,WUHU216HW,2013-12-21 06:26:00,
2013-12-21 00:31:00,31.0,29.0,29.67,North,0,3.4,5.8,92,0.00,,,0.00,WUHU216HW,2013-12-21 06:31:00,
2013-12-21 00:33:00,31.0,29.0,29.67,West,270,0.9,5.8,92,0.00,,,0.00,WUHU216HW,2013-12-21 06:33:00,
2013-12-21 00:38:00,31.0,29.0,29.68,North,0,2.2,3.4,92,0.00,,,0.00,WUHU216HW,2013-12-21 06:38:00,
2013-12-21 00:43:00,31.0,29.0,29.67,NNE,23,4.7,4.7,92,0.00,,,0.00,WUHU216HW,2013-12-21 06:43:00,
2013-12-21 00:48:00,30.8,28.8,29.67,North,0,4.0,5.6,92,0.00,,,0.00,WUHU216HW,2013-12-21 06:48:00,
2013-12-21 00:53:00,30.8,28.8,29.65,ENE,68,4.9,5.6,92,0.00,,,0.00,WUHU216HW,2013-12-21 06:53:00,
2013-12-21 00:58:00,30.8,28.8,29.66,North,0,3.1,4.9,92,0.00,,,0.00,WUHU216HW,2013-12-21 06:58:00,
2013-12-21 01:03:00,30.6,28.6,29.66,NW,315,1.1,4.7,92,0.00,,,0.00,WUHU216HW,2013-12-21 07:03:00,
2013-12-21 01:08:00,30.6,28.6,29.66,NNW,338,0.7,4.0,92,0.00,,,0.00,WUHU216HW,2013-12-21 07:08:00,
2013-12-21 01:13:00,30.6,28.6,29.66,ENE,68,0.2,2.5,92,0.00,,,0.00,WUHU216HW,2013-12-21 07:13:00,
2013-12-21 01:18:00,30.8,28.8,29.67,ESE,113,0.2,0.4,92,0.00,,,0.00,WUHU216HW,2013-12-21 07:18:00,
2013-12-21 01:23:00,30.8,28.8,29.67,ESE,113,0.4,1.6,92,0.00,,,0.00,WUHU216HW,2013-12-21 07:23:00,
2013-12-21 01:28:00,30.8,28.8,29.66,ESE,113,0.9,1.6,92,0.00,,,0.00,WUHU216HW,2013-12-21 07:28:00,
2013-12-21 01:33:00,31.0,29.0,29.63,North,0,2.0,3.8,92,0.00,,,0.00,WUHU216HW,2013-12-21 07:33:00,
2013-12-21 01:38:00,31.3,29.4,29.63,North,0,2.5,3.8,92,0.00,,,0.00,WUHU216HW,2013-12-21 07:38:00,
2013-12-21 01:43:00,31.1,29.2,29.63,North,0,0.9,3.1,92,0.00,,,0.00,WUHU216HW,2013-12-21 07:43:00,
2013-12-21 01:48:00,31.3,29.4,29.63,ENE,68,0.4,3.1,92,0.00,,,0.00,WUHU216HW,2013-12-21 07:48:00,
2013-12-21 01:53:00,31.3,29.4,29.61,ENE,68,1.3,1.3,92,0.00,,,0.00,WUHU216HW,2013-12-21 07:53:00,
2013-12-21 01:58:00,31.5,29.5,29.59,NE,45,0.9,2.5,92,0.00,,,0.00,WUHU216HW,2013-12-21 07:58:00,
2013-12-21 02:03:00,31.7,29.9,29.61,WNW,293,0.2,2.5,93,0.00,,,0.00,WUHU216HW,2013-12-21 08:03:00,
2013-12-21 02:08:00,31.7,29.9,29.62,WNW,293,0.2,0.7,93,0.00,,,0.00,WUHU216HW,2013-12-21 08:08:00,
2013-12-21 02:13:00,31.7,29.9,29.62,WNW,293,0.9,1.8,93,0.00,,,0.00,WUHU216HW,2013-12-21 08:13:00,
2013-12-21 02:18:00,31.7,29.9,29.63,WNW,293,0.2,1.8,93,0.01,,,0.01,WUHU216HW,2013-12-21 08:18:00,
2013-12-21 02:23:00,31.9,30.1,29.65,WNW,293,0.4,0.9,93,0.01,,,0.01,WUHU216HW,2013-12-21 08:23:00,
2013-12-21 02:28:00,32.0,30.2,29.66,WNW,293,0.4,0.7,93,0.01,,,0.01,WUHU216HW,2013-12-21 08:28:00,
2013-12-21 02:33:00,32.0,30.1,29.64,WNW,293,0.2,1.1,92,0.01,,,0.01,WUHU216HW,2013-12-21 08:33:00,
2013-12-21 02:38:00,32.0,30.1,29.62,WNW,293,2.5,3.4,92,0.01,,,0.01,WUHU216HW,2013-12-21 08:38:00,
2013-12-21 02:43:00,32.0,30.1,29.63,WNW,293,0.7,3.4,92,0.02,,,0.01,WUHU216HW,2013-12-21 08:43:00,
2013-12-21 02:48:00,32.0,30.1,29.64,WNW,293,0.0,1.8,92,0.02,,,0.02,WUHU216HW,2013-12-21 08:48:00,
2013-12-21 02:53:00,32.0,30.1,29.66,WNW,293,0.0,1.8,92,0.02,,,0.02,WUHU216HW,2013-12-21 08:53:00,
2013-12-21 02:58:00,32.0,30.2,29.64,WNW,293,0.0,0.0,93,0.02,,,0.02,WUHU216HW,2013-12-21 08:58:00,
2013-12-21 03:03:00,32.0,30.1,29.63,WNW,293,0.0,0.0,92,0.02,,,0.02,WUHU216HW,2013-12-21 09:03:00,
2013-12-21 03:08:00,32.0,30.1,29.62,WNW,293,0.0,0.0,92,0.02,,,0.02,WUHU216HW,2013-12-21 09:08:00,
2013-12-21 03:13:00,32.0,30.1,29.62,WNW,293,0.0,0.0,92,0.01,,,0.02,WUHU216HW,2013-12-21 09:13:00,
2013-12-21 03:18:00,32.0,30.1,29.62,WNW,293,0.0,0.0,92,0.01,,,0.02,WUHU216HW,2013-12-21 09:18:00,
2013-12-21 03:23:00,32.0,30.1,29.61,WNW,293,0.0,0.0,92,0.02,,,0.03,WUHU216HW,2013-12-21 09:23:00,
2013-12-21 03:28:00,31.9,29.9,29.60,WNW,293,0.0,0.0,92,0.02,,,0.03,WUHU216HW,2013-12-21 09:28:00,
2013-12-21 03:33:00,31.9,29.9,29.59,WNW,293,0.0,0.0,92,0.03,,,0.04,WUHU216HW,2013-12-21 09:33:00,
2013-12-21 03:38:00,31.9,29.9,29.61,WNW,293,0.0,0.0,92,0.03,,,0.04,WUHU216HW,2013-12-21 09:38:00,
2013-12-21 03:43:00,31.9,29.9,29.62,WNW,293,0.0,0.0,92,0.02,,,0.04,WUHU216HW,2013-12-21 09:43:00,
2013-12-21 03:48:00,31.9,29.9,29.63,WNW,293,0.0,0.0,92,0.02,,,0.04,WUHU216HW,2013-12-21 09:48:00,
2013-12-21 03:53:00,31.9,29.9,29.63,WNW,293,0.0,0.0,92,0.02,,,0.04,WUHU216HW,2013-12-21 09:53:00,
2013-12-21 03:58:00,31.9,29.9,29.62,WNW,293,0.0,0.0,92,0.03,,,0.05,WUHU216HW,2013-12-21 09:58:00,
2013-12-21 04:03:00,32.0,30.1,29.62,WNW,293,0.0,0.0,92,0.04,,,0.06,WUHU216HW,2013-12-21 10:03:00,
2013-12-21 04:08:00,32.0,30.1,29.60,WNW,293,0.0,0.0,92,0.05,,,0.06,WUHU216HW,2013-12-21 10:08:00,
2013-12-21 04:13:00,32.0,30.1,29.60,WNW,293,0.0,0.0,92,0.06,,,0.07,WUHU216HW,2013-12-21 10:13:00,
2013-12-21 04:18:00,32.0,30.1,29.60,WNW,293,0.0,0.0,92,0.05,,,0.08,WUHU216HW,2013-12-21 10:18:00,
2013-12-21 04:23:00,32.0,30.1,29.60,WNW,293,0.0,0.0,92,0.05,,,0.08,WUHU216HW,2013-12-21 10:23:00,
2013-12-21 04:28:00,31.9,29.9,29.60,WNW,293,0.0,0.0,92,0.05,,,0.09,WUHU216HW,2013-12-21 10:28:00,
2013-12-21 04:33:00,32.0,30.1,29.61,WNW,293,0.0,0.0,92,0.06,,,0.10,WUHU216HW,2013-12-21 10:33:00,
2013-12-21 04:38:00,32.0,30.1,29.62,WNW,293,0.0,0.0,92,0.06,,,0.10,WUHU216HW,2013-12-21 10:38:00,
2013-12-21 04:43:00,32.0,30.1,29.60,WNW,293,0.0,0.0,92,0.06,,,0.10,WUHU216HW,2013-12-21 10:43:00,
2013-12-21 04:48:00,32.0,30.1,29.61,WNW,293,0.0,0.0,92,0.07,,,0.11,WUHU216HW,2013-12-21 10:48:00,
2013-12-21 04:53:00,32.0,30.1,29.61,WNW,293,0.0,0.0,92,0.07,,,0.12,WUHU216HW,2013-12-21 10:53:00,
2013-12-21 04:58:00,31.9,29.9,29.61,WNW,293,0.0,0.0,92,0.06,,,0.12,WUHU216HW,2013-12-21 10:58:00,
2013-12-21 05:03:00,31.9,29.9,29.61,WNW,293,0.0,0.0,92,0.06,,,0.12,WUHU216HW,2013-12-21 11:03:00,
2013-12-21 05:08:00,31.9,29.9,29.60,WNW,293,0.0,0.0,92,0.06,,,0.13,WUHU216HW,2013-12-21 11:08:00,
2013-12-21 05:13:00,31.9,29.9,29.60,WNW,293,0.0,0.0,92,0.06,,,0.13,WUHU216HW,2013-12-21 11:13:00,
2013-12-21 05:18:00,31.9,30.1,29.63,WNW,293,0.0,0.0,93,0.06,,,0.14,WUHU216HW,2013-12-21 11:18:00,
2013-12-21 05:23:00,31.9,30.1,29.63,WNW,293,0.0,0.0,93,0.06,,,0.14,WUHU216HW,2013-12-21 11:23:00,
2013-12-21 05:28:00,31.9,30.1,29.62,WNW,293,0.0,0.0,93,0.04,,,0.14,WUHU216HW,2013-12-21 11:28:00,
2013-12-21 05:33:00,31.9,30.1,29.64,WNW,293,0.0,0.0,93,0.04,,,0.14,WUHU216HW,2013-12-21 11:33:00,
2013-12-21 05:38:00,32.0,30.2,29.65,WNW,293,0.0,0.0,93,0.04,,,0.14,WUHU216HW,2013-12-21 11:38:00,
2013-12-21 05:43:00,32.0,30.2,29.67,WNW,293,0.0,0.0,93,0.03,,,0.14,WUHU216HW,2013-12-21 11:43:00,
2013-12-21 05:48:00,32.0,30.2,29.66,WNW,293,0.0,0.0,93,0.02,,,0.14,WUHU216HW,2013-12-21 11:48:00,
2013-12-21 05:53:00,31.9,30.1,29.66,WNW,293,0.0,0.0,93,0.02,,,0.14,WUHU216HW,2013-12-21 11:53:00,
2013-12-21 05:58:00,32.0,30.2,29.65,WNW,293,0.0,0.0,93,0.02,,,0.14,WUHU216HW,2013-12-21 11:58:00,
2013-12-21 06:03:00,32.0,30.2,29.64,WNW,293,0.0,0.0,93,0.02,,,0.14,WUHU216HW,2013-12-21 12:03:00,
2013-12-21 06:08:00,32.0,30.2,29.64,WNW,293,0.0,0.0,93,0.02,,,0.15,WUHU216HW,2013-12-21 12:08:00,
2013-12-21 06:13:00,31.9,30.1,29.64,WNW,293,0.0,0.0,93,0.01,,,0.15,WUHU216HW,2013-12-21 12:13:00,
2013-12-21 06:18:00,31.9,30.1,29.64,WNW,293,0.0,0.0,93,0.02,,,0.16,WUHU216HW,2013-12-21 12:18:00,
2013-12-21 06:23:00,31.7,29.9,29.63,WNW,293,0.0,0.0,93,0.02,,,0.16,WUHU216HW,2013-12-21 12:23:00,
2013-12-21 06:28:00,31.7,29.9,29.62,WNW,293,0.0,0.0,93,0.02,,,0.16,WUHU216HW,2013-12-21 12:28:00,
2013-12-21 06:33:00,31.5,29.7,29.63,WNW,293,0.0,0.0,93,0.03,,,0.17,WUHU216HW,2013-12-21 12:33:00,
2013-12-21 06:38:00,31.7,29.9,29.63,WNW,293,0.0,0.0,93,0.03,,,0.17,WUHU216HW,2013-12-21 12:38:00,
2013-12-21 06:43:00,31.7,29.9,29.63,WNW,293,0.0,0.0,93,0.04,,,0.18,WUHU216HW,2013-12-21 12:43:00,
2013-12-21 06:48:00,31.5,29.7,29.62,WNW,293,0.0,0.0,93,0.04,,,0.18,WUHU216HW,2013-12-21 12:48:00,
2013-12-21 06:53:00,31.7,29.9,29.62,WNW,293,0.0,0.0,93,0.04,,,0.18,WUHU216HW,2013-12-21 12:53:00,
2013-12-21 06:58:00,31.7,29.9,29.63,WNW,293,0.0,0.0,93,0.04,,,0.18,WUHU216HW,2013-12-21 12:58:00,
2013-12-21 07:03:00,31.7,29.9,29.63,WNW,293,0.0,0.0,93,0.05,,,0.19,WUHU216HW,2013-12-21 13:03:00,
2013-12-21 07:08:00,31.7,29.9,29.63,WNW,293,0.0,0.0,93,0.04,,,0.19,WUHU216HW,2013-12-21 13:08:00,
2013-12-21 07:13:00,31.7,29.9,29.64,WNW,293,0.0,0.0,93,0.04,,,0.20,WUHU216HW,2013-12-21 13:13:00,
2013-12-21 07:18:00,31.7,29.9,29.64,WNW,293,0.0,0.0,93,0.04,,,0.20,WUHU216HW,2013-12-21 13:18:00,
2013-12-21 07:23:00,31.7,29.9,29.64,WNW,293,0.0,0.0,93,0.04,,,0.20,WUHU216HW,2013-12-21 13:23:00,
2013-12-21 07:28:00,31.7,29.9,29.64,WNW,293,0.0,0.0,93,0.04,,,0.22,WUHU216HW,2013-12-21 13:28:00,
2013-12-21 07:33:00,31.7,29.9,29.63,WNW,293,0.0,0.0,93,0.05,,,0.22,WUHU216HW,2013-12-21 13:33:00,
2013-12-21 07:38:00,31.7,29.9,29.62,WNW,293,0.0,0.0,93,0.04,,,0.22,WUHU216HW,2013-12-21 13:38:00,
2013-12-21 07:43:00,31.7,29.9,29.62,WNW,293,0.0,0.0,93,0.04,,,0.22,WUHU216HW,2013-12-21 13:43:00,
2013-12-21 07:48:00,31.9,30.1,29.61,WNW,293,0.0,0.0,93,0.04,,,0.22,WUHU216HW,2013-12-21 13:48:00,
2013-12-21 07:53:00,31.9,30.1,29.60,WNW,293,0.0,0.0,93,0.04,,,0.22,WUHU216HW,2013-12-21 13:53:00,
2013-12-21 07:58:00,31.9,30.1,29.60,WNW,293,0.0,0.0,93,0.03,,,0.22,WUHU216HW,2013-12-21 13:58:00,
2013-12-21 08:03:00,32.0,30.2,29.59,WNW,293,0.0,0.0,93,0.03,,,0.22,WUHU216HW,2013-12-21 14:03:00,
2013-12-21 08:08:00,32.0,30.2,29.59,WNW,293,0.0,0.0,93,0.02,,,0.22,WUHU216HW,2013-12-21 14:08:00,
2013-12-21 08:13:00,32.0,30.2,29.57,WNW,293,0.0,0.0,93,0.02,,,0.22,WUHU216HW,2013-12-21 14:13:00,
2013-12-21 08:18:00,32.0,30.2,29.57,WNW,293,0.0,0.0,93,0.02,,,0.22,WUHU216HW,2013-12-21 14:18:00,
2013-12-21 08:23:00,32.0,30.2,29.57,WNW,293,0.0,0.0,93,0.02,,,0.22,WUHU216HW,2013-12-21 14:23:00,
2013-12-21 08:28:00,32.0,30.2,29.57,WNW,293,0.0,0.0,93,0.01,,,0.22,WUHU216HW,2013-12-21 14:28:00,
2013-12-21 08:33:00,32.2,30.4,29.57,WNW,293,0.0,0.0,93,0.00,,,0.22,WUHU216HW,2013-12-21 14:33:00,
2013-12-21 08:38:00,32.2,30.4,29.57,WNW,293,0.0,0.0,93,0.00,,,0.22,WUHU216HW,2013-12-21 14:38:00,
2013-12-21 08:43:00,32.2,30.4,29.58,WNW,293,0.0,0.0,93,0.00,,,0.22,WUHU216HW,2013-12-21 14:43:00,
2013-12-21 08:48:00,32.4,30.6,29.57,WNW,293,0.0,0.0,93,0.00,,,0.22,WUHU216HW,2013-12-21 14:48:00,
2013-12-21 08:53:00,32.4,30.6,29.57,WNW,293,0.0,0.0,93,0.00,,,0.22,WUHU216HW,2013-12-21 14:53:00,
2013-12-21 08:58:00,32.4,30.6,29.58,WNW,293,0.0,0.0,93,0.00,,,0.22,WUHU216HW,2013-12-21 14:58:00,
2013-12-21 09:03:00,32.6,30.8,29.57,WNW,293,0.0,0.0,93,0.00,,,0.22,WUHU216HW,2013-12-21 15:03:00,
2013-12-21 09:08:00,32.6,30.8,29.57,WNW,293,0.0,0.0,93,0.00,,,0.22,WUHU216HW,2013-12-21 15:08:00,
2013-12-21 09:13:00,32.6,30.8,29.59,WNW,293,0.0,0.0,93,0.00,,,0.22,WUHU216HW,2013-12-21 15:13:00,
2013-12-21 09:18:00,32.6,30.8,29.59,WNW,293,0.0,0.0,93,0.00,,,0.22,WUHU216HW,2013-12-21 15:18:00,
2013-12-21 09:23:00,32.6,30.8,29.59,WNW,293,0.0,0.0,93,0.00,,,0.22,WUHU216HW,2013-12-21 15:23:00,
2013-12-21 09:28:00,32.8,30.7,29.59,WNW,293,0.0,0.0,92,0.00,,,0.22,WUHU216HW,2013-12-21 15:28:00,
2013-12-21 09:33:00,32.8,31.0,29.60,WNW,293,0.0,0.0,93,0.00,,,0.22,WUHU216HW,2013-12-21 15:33:00,
2013-12-21 09:38:00,32.8,31.0,29.60,WNW,293,0.0,0.0,93,0.00,,,0.22,WUHU216HW,2013-12-21 15:38:00,
2013-12-21 09:43:00,32.8,31.0,29.60,WNW,293,0.0,0.0,93,0.00,,,0.22,WUHU216HW,2013-12-21 15:43:00,
2013-12-21 09:48:00,32.8,31.0,29.60,WNW,293,0.0,0.0,93,0.00,,,0.22,WUHU216HW,2013-12-21 15:48:00,
2013-12-21 09:53:00,32.8,31.0,29.60,WNW,293,0.0,0.0,93,0.00,,,0.22,WUHU216HW,2013-12-21 15:53:00,
2013-12-21 09:58:00,32.8,30.7,29.60,WNW,293,0.0,0.0,92,0.00,,,0.22,WUHU216HW,2013-12-21 15:58:00,
2013-12-21 10:03:00,32.8,30.7,29.60,WNW,293,0.0,0.0,92,0.00,,,0.22,WUHU216HW,2013-12-21 16:03:00,
2013-12-21 10:08:00,32.8,31.0,29.60,WNW,293,0.0,0.0,93,0.00,,,0.22,WUHU216HW,2013-12-21 16:08:00,
2013-12-21 10:13:00,32.9,31.2,29.59,WNW,293,0.0,0.0,93,0.00,,,0.22,WUHU216HW,2013-12-21 16:13:00,
2013-12-21 10:18:00,32.9,30.9,29.59,WNW,293,0.0,0.0,92,0.00,,,0.22,WUHU216HW,2013-12-21 16:18:00,
2013-12-21 10:23:00,32.9,30.9,29.59,WNW,293,0.0,0.0,92,0.00,,,0.22,WUHU216HW,2013-12-21 16:23:00,
2013-12-21 10:28:00,32.9,31.2,29.59,WNW,293,0.0,0.0,93,0.00,,,0.22,WUHU216HW,2013-12-21 16:28:00,
2013-12-21 10:33:00,32.9,31.2,29.60,WNW,293,0.0,0.0,93,0.00,,,0.22,WUHU216HW,2013-12-21 16:33:00,
2013-12-21 10:38:00,33.1,31.3,29.60,WNW,293,0.0,0.0,93,0.00,,,0.22,WUHU216HW,2013-12-21 16:38:00,
2013-12-21 10:44:00,32.9,31.2,29.59,WNW,293,0.0,0.0,93,0.00,,,0.22,WUHU216HW,2013-12-21 16:44:00,
2013-12-21 10:49:00,32.9,30.9,29.58,WNW,293,0.0,0.0,92,0.00,,,0.22,WUHU216HW,2013-12-21 16:49:00,
2013-12-21 10:54:00,32.9,30.9,29.58,WNW,293,0.0,0.0,92,0.00,,,0.22,WUHU216HW,2013-12-21 16:54:00,
2013-12-21 10:59:00,32.9,30.9,29.57,WNW,293,0.0,0.0,92,0.00,,,0.22,WUHU216HW,2013-12-21 16:59:00,
2013-12-21 11:04:00,32.9,30.9,29.55,WNW,293,0.0,0.0,92,0.00,,,0.22,WUHU216HW,2013-12-21 17:04:00,
2013-12-21 11:08:00,33.1,31.3,29.56,WNW,293,0.0,0.0,93,0.00,,,0.22,WUHU216HW,2013-12-21 17:08:00,
2013-12-21 11:14:00,33.1,31.3,29.56,WNW,293,0.0,0.0,93,0.00,,,0.22,WUHU216HW,2013-12-21 17:14:00,
2013-12-21 11:19:00,33.1,31.3,29.56,WNW,293,0.0,0.0,93,0.00,,,0.22,WUHU216HW,2013-12-21 17:19:00,
2013-12-21 11:24:00,33.1,31.3,29.55,WNW,293,0.0,0.0,93,0.00,,,0.22,WUHU216HW,2013-12-21 17:24:00,
2013-12-21 11:29:00,33.1,31.3,29.55,WNW,293,0.0,0.0,93,0.00,,,0.22,WUHU216HW,2013-12-21 17:29:00,
2013-12-21 11:34:00,33.1,31.3,29.55,WNW,293,0.0,0.0,93,0.00,,,0.22,WUHU216HW,2013-12-21 17:34:00,
2013-12-21 11:39:00,33.3,31.4,29.55,WNW,293,0.0,0.0,93,0.00,,,0.22,WUHU216HW,2013-12-21 17:39:00,
2013-12-21 11:44:00,33.3,31.4,29.54,WNW,293,0.0,0.0,93,0.00,,,0.22,WUHU216HW,2013-12-21 17:44:00,
2013-12-21 11:49:00,33.1,31.3,29.55,WNW,293,0.0,0.0,93,0.00,,,0.22,WUHU216HW,2013-12-21 17:49:00,
2013-12-21 11:54:00,33.3,31.1,29.54,WNW,293,0.0,0.0,92,0.00,,,0.22,WUHU216HW,2013-12-21 17:54:00,
2013-12-21 11:59:00,33.3,31.4,29.54,WNW,293,0.0,0.0,93,0.00,,,0.22,WUHU216HW,2013-12-21 17:59:00,
2013-12-21 12:04:00,33.1,31.1,29.53,WNW,293,0.0,0.0,92,0.00,,,0.22,WUHU216HW,2013-12-21 18:04:00,
2013-12-21 12:09:00,33.1,31.3,29.53,WNW,293,0.0,0.0,93,0.00,,,0.22,WUHU216HW,2013-12-21 18:09:00,
2013-12-21 12:14:00,33.1,31.3,29.53,WNW,293,0.0,0.0,93,0.00,,,0.22,WUHU216HW,2013-12-21 18:14:00,
2013-12-21 12:19:00,33.1,31.3,29.53,WNW,293,0.0,0.0,93,0.00,,,0.22,WUHU216HW,2013-12-21 18:19:00,
2013-12-21 12:24:00,33.1,31.3,29.54,WNW,293,0.0,0.0,93,0.00,,,0.22,WUHU216HW,2013-12-21 18:24:00,
2013-12-21 12:29:00,33.1,31.3,29.54,WNW,293,0.0,0.0,93,0.00,,,0.22,WUHU216HW,2013-12-21 18:29:00,
2013-12-21 12:34:00,33.1,31.3,29.55,WNW,293,0.0,0.0,93,0.00,,,0.22,WUHU216HW,2013-12-21 18:34:00,
2013-12-21 12:39:00,32.9,31.2,29.55,WNW,293,0.0,0.0,93,0.00,,,0.22,WUHU216HW,2013-12-21 18:39:00,
2013-12-21 12:44:00,33.1,31.3,29.54,WNW,293,0.0,0.0,93,0.00,,,0.22,WUHU216HW,2013-12-21 18:44:00,
2013-12-21 12:49:00,32.9,31.2,29.54,WNW,293,0.0,0.0,93,0.00,,,0.22,WUHU216HW,2013-12-21 18:49:00,
2013-12-21 12:54:00,32.9,31.2,29.53,WNW,293,0.0,0.0,93,0.00,,,0.22,WUHU216HW,2013-12-21 18:54:00,
2013-12-21 12:59:00,32.9,31.2,29.53,WNW,293,0.0,0.0,93,0.01,,,0.22,WUHU216HW,2013-12-21 18:59:00,
2013-12-21 13:04:00,33.1,31.3,29.52,WNW,293,0.0,0.0,93,0.02,,,0.24,WUHU216HW,2013-12-21 19:04:00,
2013-12-21 13:09:00,33.1,31.3,29.53,WNW,293,0.0,0.0,93,0.02,,,0.24,WUHU216HW,2013-12-21 19:09:00,
2013-12-21 13:14:00,33.1,31.3,29.51,WNW,293,0.0,0.0,93,0.02,,,0.24,WUHU216HW,2013-12-21 19:14:00,
2013-12-21 13:19:00,33.1,31.3,29.50,WNW,293,0.0,0.0,93,0.02,,,0.24,WUHU216HW,2013-12-21 19:19:00,
2013-12-21 13:24:00,33.3,31.4,29.49,WNW,293,0.0,0.0,93,0.02,,,0.24,WUHU216HW,2013-12-21 19:24:00,
2013-12-21 13:29:00,33.5,31.6,29.49,WNW,293,0.0,0.0,93,0.03,,,0.25,WUHU216HW,2013-12-21 19:29:00,
2013-12-21 13:34:00,33.3,31.4,29.49,WNW,293,0.0,0.0,93,0.03,,,0.25,WUHU216HW,2013-12-21 19:34:00,
2013-12-21 13:39:00,33.5,31.6,29.49,WNW,293,0.0,0.0,93,0.03,,,0.25,WUHU216HW,2013-12-21 19:39:00,
2013-12-21 13:44:00,33.5,31.6,29.49,WNW,293,0.0,0.0,93,0.04,,,0.27,WUHU216HW,2013-12-21 19:44:00,
2013-12-21 13:49:00,33.5,31.6,29.49,WNW,293,0.0,0.0,93,0.05,,,0.27,WUHU216HW,2013-12-21 19:49:00,
2013-12-21 13:54:00,33.3,31.4,29.49,WNW,293,0.0,0.0,93,0.05,,,0.27,WUHU216HW,2013-12-21 19:54:00,
2013-12-21 13:59:00,33.5,31.6,29.48,WNW,293,0.0,0.0,93,0.04,,,0.27,WUHU216HW,2013-12-21 19:59:00,
2013-12-21 14:04:00,33.5,31.6,29.48,WNW,293,0.0,0.0,93,0.03,,,0.27,WUHU216HW,2013-12-21 20:04:00,
2013-12-21 14:09:00,33.3,31.4,29.48,WNW,293,0.0,0.0,93,0.03,,,0.27,WUHU216HW,2013-12-21 20:09:00,
2013-12-21 14:14:00,33.3,31.4,29.48,WNW,293,0.0,0.0,93,0.03,,,0.27,WUHU216HW,2013-12-21 20:14:00,
2013-12-21 14:19:00,33.3,31.4,29.48,WNW,293,0.0,0.0,93,0.03,,,0.27,WUHU216HW,2013-12-21 20:19:00,
2013-12-21 14:24:00,33.3,31.4,29.48,WNW,293,0.0,0.0,93,0.03,,,0.29,WUHU216HW,2013-12-21 20:24:00,
2013-12-21 14:29:00,33.1,31.3,29.47,WNW,293,0.0,0.0,93,0.03,,,0.29,WUHU216HW,2013-12-21 20:29:00,
2013-12-21 14:34:00,33.1,31.3,29.46,WNW,293,0.0,0.0,93,0.03,,,0.29,WUHU216HW,2013-12-21 20:34:00,
2013-12-21 14:39:00,33.1,31.3,29.45,WNW,293,0.0,0.0,93,0.03,,,0.29,WUHU216HW,2013-12-21 20:39:00,
2013-12-21 14:44:00,33.1,31.3,29.46,WNW,293,0.0,0.0,93,0.02,,,0.29,WUHU216HW,2013-12-21 20:44:00,
2013-12-21 14:49:00,33.1,31.3,29.46,WNW,293,0.0,0.0,93,0.02,,,0.29,WUHU216HW,2013-12-21 20:49:00,
2013-12-21 14:54:00,33.3,31.4,29.45,WNW,293,0.0,0.0,93,0.02,,,0.29,WUHU216HW,2013-12-21 20:54:00,
2013-12-21 14:59:00,33.3,31.4,29.46,WNW,293,0.0,0.0,93,0.02,,,0.29,WUHU216HW,2013-12-21 20:59:00,
2013-12-21 15:04:00,33.3,31.4,29.47,WNW,293,0.0,0.0,93,0.02,,,0.29,WUHU216HW,2013-12-21 21:04:00,
2013-12-21 15:09:00,33.3,31.4,29.47,WNW,293,0.0,0.0,93,0.02,,,0.29,WUHU216HW,2013-12-21 21:09:00,
2013-12-21 15:14:00,33.3,31.4,29.48,WNW,293,0.0,0.0,93,0.02,,,0.29,WUHU216HW,2013-12-21 21:14:00,
2013-12-21 15:19:00,33.3,31.4,29.48,WNW,293,0.0,0.0,93,0.02,,,0.29,WUHU216HW,2013-12-21 21:19:00,
2013-12-21 15:24:00,33.3,31.4,29.49,WNW,293,0.0,0.0,93,0.01,,,0.29,WUHU216HW,2013-12-21 21:24:00,
2013-12-21 15:29:00,33.3,31.4,29.49,WNW,293,0.0,0.0,93,0.01,,,0.29,WUHU216HW,2013-12-21 21:29:00,
2013-12-21 15:34:00,33.3,31.4,29.49,WNW,293,0.0,0.0,93,0.01,,,0.29,WUHU216HW,2013-12-21 21:34:00,
2013-12-21 15:39:00,33.3,31.4,29.50,WNW,293,0.0,0.0,93,0.00,,,0.29,WUHU216HW,2013-12-21 21:39:00,
2013-12-21 15:44:00,33.3,31.4,29.51,WNW,293,0.0,0.0,93,0.00,,,0.29,WUHU216HW,2013-12-21 21:44:00,
2013-12-21 15:49:00,33.3,31.4,29.51,WNW,293,0.0,0.0,93,0.00,,,0.29,WUHU216HW,2013-12-21 21:49:00,
2013-12-21 15:54:00,33.3,31.4,29.51,WNW,293,0.0,0.0,93,0.00,,,0.29,WUHU216HW,2013-12-21 21:54:00,
2013-12-21 15:59:00,33.3,31.4,29.51,WNW,293,0.0,0.0,93,0.00,,,0.29,WUHU216HW,2013-12-21 21:59:00,
2013-12-21 16:04:00,33.3,31.4,29.48,WNW,293,0.0,0.0,93,0.00,,,0.29,WUHU216HW,2013-12-21 22:04:00,
2013-12-21 16:09:00,33.3,31.4,29.49,WNW,293,0.0,0.0,93,0.00,,,0.29,WUHU216HW,2013-12-21 22:09:00,
2013-12-21 16:14:00,33.3,31.4,29.49,WNW,293,0.0,0.0,93,0.00,,,0.29,WUHU216HW,2013-12-21 22:14:00,
2013-12-21 16:19:00,33.3,31.4,29.48,WNW,293,0.0,0.0,93,0.00,,,0.29,WUHU216HW,2013-12-21 22:19:00,
2013-12-21 16:24:00,33.3,31.4,29.48,WNW,293,0.0,0.0,93,0.00,,,0.29,WUHU216HW,2013-12-21 22:24:00,
2013-12-21 16:29:00,33.1,31.3,29.49,WNW,293,0.0,0.0,93,0.00,,,0.29,WUHU216HW,2013-12-21 22:29:00,
2013-12-21 16:34:00,33.1,31.3,29.50,WNW,293,0.0,0.0,93,0.00,,,0.29,WUHU216HW,2013-12-21 22:34:00,
2013-12-21 16:39:00,33.1,31.3,29.48,WNW,293,0.0,0.0,93,0.01,,,0.31,WUHU216HW,2013-12-21 22:39:00,
2013-12-21 16:44:00,33.3,31.4,29.48,WNW,293,0.0,0.0,93,0.01,,,0.31,WUHU216HW,2013-12-21 22:44:00,
2013-12-21 16:49:00,33.3,31.4,29.48,WNW,293,0.0,0.0,93,0.01,,,0.31,WUHU216HW,2013-12-21 22:49:00,
2013-12-21 16:54:00,33.3,31.4,29.49,WNW,293,0.0,0.0,93,0.01,,,0.31,WUHU216HW,2013-12-21 22:54:00,
2013-12-21 16:59:00,33.3,31.4,29.49,WNW,293,0.0,0.0,93,0.01,,,0.31,WUHU216HW,2013-12-21 22:59:00,
2013-12-21 17:04:00,33.3,31.4,29.49,WNW,293,0.0,0.0,93,0.01,,,0.31,WUHU216HW,2013-12-21 23:04:00,
2013-12-21 17:09:00,33.3,31.4,29.48,NW,315,0.0,0.0,93,0.01,,,0.31,WUHU216HW,2013-12-21 23:09:00,
2013-12-21 17:14:00,33.3,31.4,29.48,NW,315,0.0,0.0,93,0.01,,,0.31,WUHU216HW,2013-12-21 23:14:00,
2013-12-21 17:19:00,33.3,31.1,29.48,NW,315,0.0,0.0,92,0.01,,,0.31,WUHU216HW,2013-12-21 23:19:00,
2013-12-21 17:24:00,33.3,31.4,29.48,NW,315,0.0,0.0,93,0.01,,,0.31,WUHU216HW,2013-12-21 23:24:00,
2013-12-21 17:29:00,33.3,31.4,29.46,North,0,0.0,0.0,93,0.01,,,0.31,WUHU216HW,2013-12-21 23:29:00,
2013-12-21 17:34:00,33.3,31.4,29.46,North,0,0.0,0.0,93,0.00,,,0.31,WUHU216HW,2013-12-21 23:34:00,
2013-12-21 17:39:00,33.3,31.4,29.47,North,0,0.0,0.0,93,0.00,,,0.31,WUHU216HW,2013-12-21 23:39:00,
2013-12-21 17:44:00,33.1,31.1,29.46,North,0,0.0,0.0,92,0.00,,,0.31,WUHU216HW,2013-12-21 23:44:00,
2013-12-21 17:49:00,33.3,31.4,29.45,North,0,0.0,0.0,93,0.00,,,0.31,WUHU216HW,2013-12-21 23:49:00,
2013-12-21 17:54:00,33.3,31.4,29.42,ENE,68,0.0,0.0,93,0.00,,,0.31,WUHU216HW,2013-12-21 23:54:00,
2013-12-21 17:59:00,33.3,31.4,29.42,NNE,23,0.0,0.0,93,0.00,,,0.31,WUHU216HW,2013-12-21 23:59:00,
2013-12-21 18:04:00,33.3,31.4,29.40,SSW,203,0.0,0.0,93,0.00,,,0.31,WUHU216HW,2013-12-22 00:04:00,
2013-12-21 18:09:00,33.3,31.4,29.41,NNE,23,2.0,2.0,93,0.00,,,0.31,WUHU216HW,2013-12-22 00:09:00,
2013-12-21 18:14:00,33.3,31.4,29.41,North,0,0.9,3.4,93,0.00,,,0.31,WUHU216HW,2013-12-22 00:14:00,
2013-12-21 18:19:00,33.3,31.4,29.40,North,0,2.5,3.4,93,0.00,,,0.31,WUHU216HW,2013-12-22 00:19:00,
2013-12-21 18:24:00,33.3,31.4,29.39,NE,45,1.3,2.5,93,0.00,,,0.31,WUHU216HW,2013-12-22 00:24:00,
2013-12-21 18:29:00,33.5,31.6,29.39,SE,135,0.4,2.7,93,0.00,,,0.31,WUHU216HW,2013-12-22 00:29:00,
2013-12-21 18:34:00,33.3,31.4,29.39,ENE,68,0.2,2.7,93,0.00,,,0.31,WUHU216HW,2013-12-22 00:34:00,
2013-12-21 18:39:00,33.5,31.6,29.38,NNW,338,0.0,1.1,93,0.00,,,0.31,WUHU216HW,2013-12-22 00:39:00,
2013-12-21 18:44:00,33.5,31.6,29.38,North,0,1.1,1.1,93,0.00,,,0.31,WUHU216HW,2013-12-22 00:44:00,
2013-12-21 18:49:00,33.5,31.6,29.39,NNW,338,0.2,1.1,93,0.00,,,0.31,WUHU216HW,2013-12-22 00:49:00,
2013-12-21 18:54:00,33.5,31.6,29.39,NNE,23,0.2,1.1,93,0.00,,,0.31,WUHU216HW,2013-12-22 00:54:00,
2013-12-21 18:59:00,33.5,31.6,29.38,North,0,0.0,2.9,93,0.00,,,0.31,WUHU216HW,2013-12-22 00:59:00,
2013-12-21 19:04:00,33.5,31.6,29.39,NW,315,0.0,2.9,93,0.00,,,0.31,WUHU216HW,2013-12-22 01:04:00,
2013-12-21 19:09:00,33.5,31.6,29.39,North,0,0.4,1.1,93,0.00,,,0.31,WUHU216HW,2013-12-22 01:09:00,
2013-12-21 19:14:00,33.5,31.6,29.41,NNE,23,0.0,0.7,93,0.00,,,0.31,WUHU216HW,2013-12-22 01:14:00,
2013-12-21 19:19:00,33.5,31.6,29.41,NNW,338,0.4,0.7,93,0.00,,,0.31,WUHU216HW,2013-12-22 01:19:00,
2013-12-21 19:24:00,33.5,31.6,29.42,WNW,293,0.0,0.7,93,0.00,,,0.31,WUHU216HW,2013-12-22 01:24:00,
2013-12-21 19:29:00,33.5,31.6,29.42,NNE,23,1.6,1.6,93,0.00,,,0.31,WUHU216HW,2013-12-22 01:29:00,
2013-12-21 19:34:00,33.5,31.6,29.42,North,0,1.3,2.5,93,0.00,,,0.31,WUHU216HW,2013-12-22 01:34:00,
2013-12-21 19:39:00,33.5,31.6,29.43,NW,315,0.2,2.5,93,0.00,,,0.31,WUHU216HW,2013-12-22 01:39:00,
2013-12-21 19:44:00,33.5,31.6,29.44,NW,315,0.4,2.0,93,0.00,,,0.31,WUHU216HW,2013-12-22 01:44:00,
2013-12-21 19:49:00,33.7,31.8,29.47,NW,315,0.4,2.5,93,0.00,,,0.31,WUHU216HW,2013-12-22 01:49:00,
2013-12-21 19:54:00,33.5,31.6,29.47,NW,315,2.7,2.7,93,0.00,,,0.31,WUHU216HW,2013-12-22 01:54:00,
2013-12-21 19:59:00,33.5,31.6,29.48,NNW,338,1.1,2.7,93,0.00,,,0.31,WUHU216HW,2013-12-22 01:59:00,
2013-12-21 20:04:00,33.5,31.6,29.49,West,270,1.8,3.1,93,0.00,,,0.31,WUHU216HW,2013-12-22 02:04:00,
2013-12-21 20:09:00,33.5,31.6,29.49,WSW,248,3.4,3.4,93,0.00,,,0.31,WUHU216HW,2013-12-22 02:09:00,
2013-12-21 20:14:00,33.5,31.6,29.50,West,270,0.7,3.4,93,0.00,,,0.31,WUHU216HW,2013-12-22 02:14:00,
2013-12-21 20:19:00,33.5,31.6,29.50,WSW,248,1.1,1.1,93,0.00,,,0.31,WUHU216HW,2013-12-22 02:19:00,
2013-12-21 20:24:00,33.3,31.4,29.50,NNE,23,0.0,1.1,93,0.00,,,0.31,WUHU216HW,2013-12-22 02:24:00,
2013-12-21 20:29:00,33.3,31.4,29.49,NNE,23,0.0,1.1,93,0.00,,,0.31,WUHU216HW,2013-12-22 02:29:00,
2013-12-21 20:34:00,33.3,31.4,29.49,ENE,68,0.0,0.7,93,0.01,,,0.31,WUHU216HW,2013-12-22 02:34:00,
2013-12-21 20:39:00,33.3,31.4,29.49,ENE,68,0.0,0.7,93,0.01,,,0.31,WUHU216HW,2013-12-22 02:39:00,
2013-12-21 20:44:00,33.3,31.4,29.48,ENE,68,0.0,0.2,93,0.01,,,0.31,WUHU216HW,2013-12-22 02:44:00,
2013-12-21 20:49:00,33.3,31.4,29.48,ENE,68,0.0,0.2,93,0.01,,,0.31,WUHU216HW,2013-12-22 02:49:00,
2013-12-21 20:54:00,33.3,31.4,29.49,NE,45,0.0,0.2,93,0.01,,,0.31,WUHU216HW,2013-12-22 02:54:00,
2013-12-21 20:59:00,33.5,31.6,29.49,NE,45,0.0,0.2,93,0.01,,,0.31,WUHU216HW,2013-12-22 02:59:00,
2013-12-21 21:04:00,33.5,31.6,29.49,NE,45,0.2,0.2,93,0.01,,,0.31,WUHU216HW,2013-12-22 03:04:00,
2013-12-21 21:09:00,33.5,31.6,29.49,NNE,23,0.0,0.7,93,0.01,,,0.31,WUHU216HW,2013-12-22 03:09:00,
2013-12-21 21:14:00,33.5,31.6,29.49,NNE,23,0.2,0.7,93,0.01,,,0.31,WUHU216HW,2013-12-22 03:14:00,
2013-12-21 21:19:00,33.5,31.6,29.49,NNE,23,0.0,0.2,93,0.01,,,0.31,WUHU216HW,2013-12-22 03:19:00,
2013-12-21 21:24:00,33.5,31.6,29.50,SW,225,0.7,0.7,93,0.01,,,0.31,WUHU216HW,2013-12-22 03:24:00,
2013-12-21 21:29:00,33.7,31.8,29.52,SW,225,2.5,2.7,93,0.00,,,0.31,WUHU216HW,2013-12-22 03:29:00,
2013-12-21 21:34:00,33.7,32.0,29.53,SSW,203,0.0,2.7,94,0.00,,,0.31,WUHU216HW,2013-12-22 03:34:00,
2013-12-21 21:39:00,33.7,31.8,29.53,East,90,0.4,2.2,93,0.01,,,0.33,WUHU216HW,2013-12-22 03:39:00,
2013-12-21 21:44:00,33.7,31.8,29.53,ESE,113,0.0,1.8,93,0.01,,,0.33,WUHU216HW,2013-12-22 03:44:00,
2013-12-21 21:49:00,33.7,32.0,29.53,SSE,158,0.0,0.2,94,0.01,,,0.33,WUHU216HW,2013-12-22 03:49:00,
2013-12-21 21:54:00,33.7,32.0,29.53,SSW,203,0.0,0.4,94,0.01,,,0.33,WUHU216HW,2013-12-22 03:54:00,
2013-12-21 21:59:00,33.7,32.0,29.53,SSW,203,0.0,0.4,94,0.01,,,0.33,WUHU216HW,2013-12-22 03:59:00,
2013-12-21 22:04:00,33.7,32.0,29.53,SSW,203,0.0,0.0,94,0.01,,,0.33,WUHU216HW,2013-12-22 04:04:00,
2013-12-21 22:09:00,33.8,32.2,29.53,South,180,0.0,0.4,94,0.02,,,0.34,WUHU216HW,2013-12-22 04:09:00,
2013-12-21 22:14:00,33.8,32.2,29.53,South,180,0.0,0.4,94,0.02,,,0.34,WUHU216HW,2013-12-22 04:14:00,
2013-12-21 22:19:00,33.8,32.2,29.53,SE,135,0.2,0.2,94,0.02,,,0.34,WUHU216HW,2013-12-22 04:19:00,
2013-12-21 22:24:00,33.8,32.2,29.52,SE,135,0.0,0.4,94,0.02,,,0.34,WUHU216HW,2013-12-22 04:24:00,
2013-12-21 22:29:00,33.8,32.2,29.52,SE,135,0.0,0.4,94,0.02,,,0.34,WUHU216HW,2013-12-22 04:29:00,
2013-12-21 22:34:00,33.8,32.2,29.53,SSW,203,0.4,0.4,94,0.02,,,0.34,WUHU216HW,2013-12-22 04:34:00,
2013-12-21 22:39:00,34.0,32.4,29.53,SSE,158,0.0,0.4,94,0.01,,,0.34,WUHU216HW,2013-12-22 04:39:00,
2013-12-21 22:44:00,34.0,32.4,29.53,SSE,158,0.2,0.4,94,0.01,,,0.34,WUHU216HW,2013-12-22 04:44:00,
2013-12-21 22:49:00,34.0,32.4,29.53,SE,135,1.1,1.1,94,0.01,,,0.34,WUHU216HW,2013-12-22 04:49:00,
2013-12-21 22:54:00,34.0,32.4,29.53,SSE,158,0.2,1.1,94,0.01,,,0.34,WUHU216HW,2013-12-22 04:54:00,
2013-12-21 22:59:00,34.0,32.4,29.52,SSE,158,0.0,0.7,94,0.01,,,0.34,WUHU216HW,2013-12-22 04:59:00,
2013-12-21 23:01:00,34.0,32.4,29.53,SSE,158,0.2,0.7,94,0.01,,,0.34,WUHU216HW,2013-12-22 05:01:00,
2013-12-21 23:06:00,34.2,32.6,29.53,SSE,158,0.4,0.7,94,0.00,,,0.34,WUHU216HW,2013-12-22 05:06:00,
2013-12-21 23:11:00,34.2,32.6,29.52,SE,135,0.4,0.7,94,0.00,,,0.34,WUHU216HW,2013-12-22 05:11:00,
2013-12-21 23:16:00,34.2,32.6,29.52,East,90,0.4,0.4,94,0.00,,,0.34,WUHU216HW,2013-12-22 05:16:00,
2013-12-21 23:21:00,34.2,32.6,29.52,SW,225,0.0,0.9,94,0.00,,,0.34,WUHU216HW,2013-12-22 05:21:00,
2013-12-21 23:26:00,34.2,32.6,29.53,SSE,158,0.0,1.6,94,0.00,,,0.34,WUHU216HW,2013-12-22 05:26:00,
2013-12-21 23:31:00,34.4,32.8,29.54,SE,135,0.2,2.2,94,0.00,,,0.34,WUHU216HW,2013-12-22 05:31:00,
2013-12-21 23:36:00,34.6,32.9,29.54,SSW,203,1.8,2.2,94,0.00,,,0.34,WUHU216HW,2013-12-22 05:36:00,
2013-12-21 23:41:00,34.7,33.1,29.54,SW,225,0.7,2.0,94,0.00,,,0.34,WUHU216HW,2013-12-22 05:41:00,
2013-12-21 23:46:00,34.9,33.3,29.54,South,180,1.8,3.6,94,0.00,,,0.34,WUHU216HW,2013-12-22 05:46:00,
2013-12-21 23:51:00,34.9,33.3,29.54,SW,225,2.5,4.7,94,0.00,,,0.34,WUHU216HW,2013-12-22 05:51:00,
2013-12-21 23:56:00,35.1,33.5,29.54,WSW,248,4.3,5.1,94,0.00,,,0.34,WUHU216HW,2013-12-22 05:56:00,